Please support this Forum and Neven's Blog

Show Posts

This section allows you to view all posts made by this member. Note that you can only see posts made in areas you currently have access to.


Attachments - Hyperion

Pages: [1] 2
Filename Downloads Message Posted
36hrto12apr3Dxs.gif 43 Re: The 2017 melting season May 12, 2017, 02:20:29 AM
-36-o-mslp.jpeg 55 Re: The 2017 melting season May 12, 2017, 02:20:29 AM
-0-70-Temp.jpeg 37 Re: The 2017 melting season May 12, 2017, 02:20:29 AM
5m 2012-2017 may.gif 44 Halo[de]cline. The expansion of the Surface mixed zone, loss of Fresher Lens. May 07, 2017, 03:43:29 AM
mixedlayer 2012-2017 may.gif 36 Halo[de]cline. The expansion of the Surface mixed zone, loss of Fresher Lens. May 07, 2017, 03:43:29 AM
createScreenshot (1).png 23 Re: Fram Export May 05, 2017, 11:38:51 PM
wrangel29.png 100 Re: The 2017 melting season April 30, 2017, 05:56:32 AM
Laptev21-29apr.gif 103 Re: The 2017 melting season April 30, 2017, 05:56:32 AM
BEAUFORT21-28APR17.gif 1081 Re: The 2017 melting season April 29, 2017, 03:41:45 AM
CHUKCHI21-28APR17.gif 1080 Re: The 2017 melting season April 29, 2017, 03:41:45 AM
EastSIBsea21-28APR17.gif 1071 Re: The 2017 melting season April 29, 2017, 03:41:45 AM
EOSDIS22-4-16.jpg 45 Re: The 2017 melting season April 24, 2017, 11:51:35 PM
EOSDIS22-4-17.jpg 44 Re: The 2017 melting season April 24, 2017, 11:51:35 PM
berNull17-21.gif 2458 Re: The 2017 melting season April 24, 2017, 11:51:35 PM
berNullanim15-23apr.gif 3293 Re: The 2017 melting season April 24, 2017, 01:32:33 PM
berSSTAanim15-23apr.gif 3309 Re: The 2017 melting season April 24, 2017, 01:32:33 PM
Atlantic flush.jpg 49 Re: The 2017 melting season April 24, 2017, 01:32:33 PM
25thaprlFullARCssta.jpg 47 Re: The 2017 melting season April 24, 2017, 01:32:33 PM
small15-22BESAS.gif 1033 Re: The 2017 melting season April 23, 2017, 09:35:22 AM
BerEss 15-22apr.gif 117 Re: The 2017 melting season April 23, 2017, 03:13:54 AM
12 april 2007 9pm.jpeg 22 Re: Trends for the Southern Ocean April 12, 2017, 12:02:53 PM
13 april 2007 12am tpw.jpeg 22 Re: Trends for the Southern Ocean April 12, 2017, 12:02:53 PM
13 april 2007 9am mslp.jpeg 21 Re: Trends for the Southern Ocean April 12, 2017, 12:02:53 PM
31_mar17alt3kmTPWpacArc.jpeg 41 Re: The 2017 melting season March 31, 2017, 01:11:25 AM
31_3_17alt1500mArcticRH.jpeg 26 Re: The 2017 melting season March 30, 2017, 10:34:40 PM
31_3_17alt1000hpaArcticTemp.jpeg 30 Re: The 2017 melting season March 30, 2017, 10:34:40 PM
31_3_17alt3000wind&RH.jpeg 26 Re: The 2017 melting season March 30, 2017, 10:34:40 PM
31_3_17hpa1000ArcticRH.jpeg 27 Re: The 2017 melting season March 30, 2017, 10:34:40 PM
31_3_17alt3kmWindArcticTPW.jpeg 38 Re: The 2017 melting season March 30, 2017, 10:26:34 PM
31_3_17alt11kmArcticRH.jpeg 42 Re: The 2017 melting season March 30, 2017, 10:26:34 PM
31_3_17alt6kmArcticRH.jpeg 37 Re: The 2017 melting season March 30, 2017, 10:26:34 PM
31_3_17alt3kmArcticRH.jpeg 24 Re: The 2017 melting season March 30, 2017, 10:26:34 PM
27marchApocalyptoKraken..png 35 Roundhouse punches from the ApocalyptoKraken March 27, 2017, 04:51:50 AM
sevenkrakenoftheapocalypse27mar17.png 1854 Roundhouse punches from the ApocalyptoKraken March 27, 2017, 04:51:50 AM
rovboard.jpg 3045 pinning the tail on the donkey March 26, 2017, 01:15:59 AM
mauidolphin.jpg 3036 pinning the tail on the donkey March 26, 2017, 01:15:59 AM
mauiPenguin.jpg 3030 pinning the tail on the donkey March 26, 2017, 01:15:59 AM
eight_col_Flooding_at_Hunua_Ranges_Regional_Park_credit_Auckland_Council_(2).jpg 25 Re: ClimateGate 2 March 25, 2017, 12:54:27 PM
850hpa25mar17.jpeg 4496 Re: The 2017 melting season March 24, 2017, 04:57:18 PM
500hpa25mar17.jpeg 4477 Re: The 2017 melting season March 24, 2017, 04:57:18 PM
70hpa25mar17.jpeg 4487 Re: The 2017 melting season March 24, 2017, 04:57:18 PM
10hpa25mar17.jpeg 4486 Re: The 2017 melting season March 24, 2017, 04:57:18 PM
MSLP1000hpa13mar.jpg 1661 Re: The 2017 melting season March 13, 2017, 10:43:27 AM
850to700hpa13mar.jpg 1662 Re: The 2017 melting season March 13, 2017, 10:43:27 AM
500to250hpa13mar.jpg 1648 Re: The 2017 melting season March 13, 2017, 10:43:27 AM
70to10hpa13mar.jpg 1652 Re: The 2017 melting season March 13, 2017, 10:43:27 AM
250hpa12mar2017.jpeg 273 Re: Arctic temperature layers and inversions March 11, 2017, 09:11:35 PM
70hpa12mar2017.jpeg 273 Re: Arctic temperature layers and inversions March 11, 2017, 09:11:35 PM
10hpa12mar2017.jpeg 270 Re: Arctic temperature layers and inversions March 11, 2017, 09:11:35 PM
1000hpa12mar2017.jpeg 275 Re: Arctic temperature layers and inversions March 11, 2017, 09:03:15 PM
Pages: [1] 2